Ashland, OR

4:43 AM PST on February 08, 2016 (GMT -0800)
Tolman Creek Mountain | | Change Station
CLOSE
Current Station
Personal Weather Station
Location: Ashland, OR
Elevation: 2884 ft
Nearby Weather Stations

Elev 2884 ft 42.16 °N, 122.67 °W | Updated 1 minute ago

Clear
Clear
55.9 °F
Feels Like 55.9 °F
N
10.4
Wind Variable Wind from SW

Today
High -- | Low -- °F
--% Chance of Precip.
Yesterday
High -- | Low -- °F
Precip. -- in
Pressure 30.41 in
Visibility 10.0 miles
Clouds Clear
Dew Point 33 °F
Humidity 42%
Rainfall 0.00 in
Snow Depth Not available.
7:16 AM 5:34 PM
Waning Crescent, 0% visible
METAR KMFR 081153Z AUTO 00000KT 10SM CLR 05/03 A3040 RMK AO2 SLP296 T00500033 10094 20044 57004
Pressure 30.41 in
Visibility 10.0 miles
Clouds Clear
Dew Point 33 °F
Humidity 42%
Rainfall 0.00 in
Snow Depth Not available.
7:16 AM 5:34 PM
Waning Crescent, 0% visible
METAR KMFR 081153Z AUTO 00000KT 10SM CLR 05/03 A3040 RMK AO2 SLP296 T00500033 10094 20044 57004

10-Day Weather Forecast

Almanac

Astronomy

Feb. 08, 2016 Rise Set
Actual Time
Civil Twilight
Nautical Twilight
Astronomical Twilight
Moon
Length of Visible Light
Length of Day
Tomorrow will be .
, % of the Moon is Illuminated

Today's Extremes

State Highs State Lows

Community

WunderPhotos

Upload Photos

1,891,428 photos uploaded!

WunderBlog® & News

Nearby

Air Quality

  Air Quality AQ Index Pollutant
Not available.

Snow Depth

Station Depth Elevation

Earthquake Activity

City Distance Mag. Time & Date
Minimum magnitude displayed is 2.5.

Coastal Water Temperatures

Place Temperature

Stations

Nearby Weather Stations

Station Location Temp. Windchill Dew Point Humidity Wind Precip. Elev Updated Type
                   

Watches & Warnings

There are currently no watches in effect.